Terminal Aerodrome Forecast
Issued by NWS Charleston, WV

Current Version | Previous Version | Graphics & Text | Print | Product List | Glossary Off
Versions: 1 2 3 4 5 6 7 8 9 10 11 12 13 14 15 16 17 18 19 20 21 22 23 24 25 26 27 28

000
FTUS41 KRLX 221923 AAD
TAFPKB
TAF AMD
KPKB 221923Z 2219/2318 01004KT 6SM BR OVC007
      TEMPO 2219/2223 5SM BR OVC012
     FM222300 00000KT 5SM BR OVC008
     FM230800 00000KT 3SM SHRA BR OVC008
     FM231300 14006KT 6SM BR OVC008
     FM231500 18008KT P6SM BKN015
     FM231700 20009KT 6SM SHRA BR OVC015=

USA.gov is the U.S. government's official web portal to all federal, state and local government web resources and services.